Home   Weather   USA   Saginaw   Past weeks
Flag for USA

Past Weather in Saginaw, Michigan, USA — Yesterday and Last 2 Weeks

Currently: 59 °F. Clear. (Weather station: Saginaw County H.W. Browne Airport, USA). See more current weather

Past Weather in Saginaw — Graph

°F

Saginaw Temperature Yesterday

Maximum temperature yesterday: 83 °F (at 4:15 pm)
Minimum temperature yesterday: 55 °F (at 5:55 am)
Average temperature yesterday: 71 °F

High & Low Weather Summary for the Past Weeks

 TemperatureHumidityPressure
High90 °F (Aug 6, 3:55 pm)94% (Aug 4, 7:55 am)30.21 "Hg (Aug 4, 7:55 am)
Low55 °F (Aug 10, 5:55 am)37% (Jul 28, 3:15 pm)29.72 "Hg (Aug 1, 3:55 pm)
Average72 °F73%30.00 "Hg
* Reported Jul 27 9:15 pm — Aug 11 9:35 pm, Saginaw. Weather by CustomWeather, © 2022

Note: Actual official high and low records may vary slightly from our data, if they occured in-between our weather recording intervals... More about our weather records

Saginaw Weather History for the Previous 24 Hours

Scroll right to see more
 ConditionsComfort  
Time TempWeatherWind HumidityBarometerVisibility
9:35 pm
Thu, Aug 11
60 °FClear.3 mph74%30.17 "Hg10 mi
9:15 pm62 °FClear.3 mph70%30.16 "Hg10 mi
7:35 pm69 °FSunny.6 mph55%30.14 "Hg10 mi
7:15 pm71 °FSunny.6 mph52%30.15 "Hg10 mi
6:55 pm71 °FSunny.6 mph52%30.15 "Hg10 mi
6:35 pm72 °FSunny.8 mph49%30.15 "Hg10 mi
5:35 pm72 °FSunny.8 mph50%30.15 "Hg10 mi
5:15 pm73 °FSunny.10 mph50%30.15 "Hg10 mi
4:55 pm73 °FSunny.10 mph50%30.15 "Hg10 mi
4:35 pm73 °FSunny.9 mph48%30.15 "Hg10 mi
4:15 pm73 °FSunny.8 mph48%30.15 "Hg10 mi
3:35 pm73 °FScattered clouds.10 mph53%30.16 "Hg10 mi
3:15 pm73 °FScattered clouds.9 mph54%30.16 "Hg10 mi
2:35 pm73 °FScattered clouds.10 mph53%30.16 "Hg10 mi
2:15 pm73 °FScattered clouds.8 mph54%30.16 "Hg10 mi
1:55 pm73 °FScattered clouds.10 mph53%30.16 "Hg10 mi
1:15 pm73 °FScattered clouds.10 mph52%30.17 "Hg10 mi
12:55 pm71 °FScattered clouds.10 mph56%30.17 "Hg10 mi
12:35 pm73 °FScattered clouds.9 mph57%30.17 "Hg10 mi
12:15 pm72 °FScattered clouds.10 mph59%30.17 "Hg10 mi
11:55 am71 °FSunny.7 mph59%30.17 "Hg10 mi
11:35 am71 °FScattered clouds.8 mph61%30.17 "Hg10 mi
11:15 am70 °FSunny.10 mph63%30.16 "Hg10 mi
10:55 am69 °FSunny.10 mph65%30.16 "Hg10 mi
10:35 am69 °FSunny.10 mph65%30.16 "Hg10 mi
9:15 am66 °FSunny.6 mph66%30.15 "Hg10 mi
8:55 am65 °FSunny.8 mph67%30.14 "Hg10 mi
8:35 am64 °FSunny.9 mph67%30.13 "Hg10 mi
8:15 am63 °FSunny.8 mph68%30.13 "Hg10 mi
7:55 am62 °FSunny.9 mph69%30.12 "Hg10 mi
7:15 am59 °FSunny.6 mph76%30.12 "Hg10 mi
6:55 am58 °FSunny.5 mph77%30.11 "Hg10 mi
6:35 am58 °FSunny.5 mph75%30.11 "Hg10 mi
6:15 am59 °FClear.6 mph73%30.11 "Hg10 mi
5:55 am60 °FClear.3 mph73%30.11 "Hg10 mi
5:35 am61 °FClear.6 mph70%30.11 "Hg10 mi
5:15 am62 °FClear.7 mph68%30.11 "Hg10 mi
4:55 am62 °FPassing clouds.7 mph68%30.11 "Hg10 mi
4:35 am65 °FPartly cloudy.6 mph60%30.11 "Hg10 mi
3:55 am65 °FPartly cloudy.5 mph66%30.11 "Hg10 mi
3:35 am65 °FPartly cloudy.5 mph75%30.11 "Hg10 mi
3:15 am66 °FPartly cloudy.5 mph73%30.11 "Hg10 mi
2:55 am65 °FPassing clouds.No wind81%30.11 "Hg10 mi
2:15 am66 °FPartly cloudy.No wind81%30.11 "Hg10 mi
1:55 am67 °FOvercast.3 mph81%30.11 "Hg10 mi
1:15 am67 °FPassing clouds.5 mph81%30.10 "Hg10 mi
12:35 am69 °FPartly cloudy.6 mph74%30.10 "Hg10 mi
12:15 am71 °FPartly cloudy.8 mph73%30.09 "Hg10 mi
11:55 pm
Wed, Aug 10
72 °FPartly cloudy.7 mph77%30.09 "Hg10 mi
11:15 pm73 °FMostly cloudy.7 mph74%30.07 "Hg10 mi
10:55 pm74 °FPassing clouds.6 mph68%30.06 "Hg10 mi
10:35 pm74 °FPassing clouds.5 mph67%30.06 "Hg10 mi
10:15 pm75 °FPassing clouds.7 mph65%30.05 "Hg10 mi
Weather by CustomWeather, © 2022

See weather overview